Wetterdaten: Woche 25.11.19 - 01.12.19 (KW48)
Datum Zeit Temp. Aussen Temp. o. S. Temp +5cm Feuchte Auss Luftdruck Regen Sonnenschein Regendauer Solar Windben Empfang
25.11.2019 00:00 3,7 C 2,3 C 1,8 C 96 % 1010,1 hPa 0,0 l/m 0,00 h 0,00 h 0 W/m 0,0 km/h (0 Bft) 97,58 %
25.11.2019 01:00 3,3 C 2,6 C 2,1 C 96 % 1010,1 hPa 0,0 l/m 0,00 h 0,00 h 0 W/m 0,0 km/h (0 Bft) 96,90 %
25.11.2019 02:00 3,6 C 3,2 C 2,9 C 97 % 1010,3 hPa 0,0 l/m 0,00 h 0,00 h 0 W/m 0,0 km/h (0 Bft) 98,06 %
25.11.2019 03:00 3,9 C 3,5 C 2,9 C 97 % 1010,0 hPa 0,0 l/m 0,00 h 0,00 h 0 W/m 0,0 km/h (0 Bft) 94,74 %
25.11.2019 04:00 4,5 C 4,1 C 3,6 C 98 % 1009,9 hPa 0,0 l/m 0,00 h 0,00 h 0 W/m 2,0 km/h (1 Bft) 99,24 %
25.11.2019 05:00 5,1 C 4,4 C 3,9 C 98 % 1009,7 hPa 0,0 l/m 0,00 h 0,00 h 0 W/m 1,0 km/h (0 Bft) 97,39 %
25.11.2019 06:00 5,2 C 4,5 C 4,0 C 99 % 1009,7 hPa 0,0 l/m 0,00 h 0,00 h 0 W/m 3,3 km/h (1 Bft) 94,54 %
25.11.2019 07:00 5,3 C 5,0 C 4,4 C 99 % 1010,3 hPa 0,0 l/m 0,00 h 0,00 h 0 W/m 1,2 km/h (1 Bft) 98,46 %
25.11.2019 08:00 5,4 C 5,0 C 4,4 C 99 % 1010,7 hPa 0,0 l/m 0,00 h 0,00 h 5 W/m 2,0 km/h (1 Bft) 96,98 %
25.11.2019 09:00 5,6 C 5,3 C 4,8 C 99 % 1010,6 hPa 0,0 l/m 0,00 h 0,00 h 16 W/m 2,1 km/h (1 Bft) 97,96 %
25.11.2019 10:00 6,1 C 6,2 C 5,7 C 99 % 1010,5 hPa 0,0 l/m 0,00 h 0,00 h 28 W/m 2,8 km/h (1 Bft) 95,21 %
25.11.2019 11:00 6,7 C 6,9 C 6,4 C 99 % 1010,3 hPa 0,0 l/m 0,00 h 0,00 h 52 W/m 6,7 km/h (2 Bft) 97,17 %
25.11.2019 12:00 7,5 C 8,1 C 7,5 C 99 % 1009,7 hPa 0,0 l/m 0,00 h 0,00 h 81 W/m 1,4 km/h (1 Bft) 98,34 %
25.11.2019 13:00 8,4 C 9,8 C 8,5 C 98 % 1009,6 hPa 0,0 l/m 0,40 h 0,00 h 148 W/m 6,1 km/h (2 Bft) 96,77 %
25.11.2019 14:00 9,5 C 10,7 C 8,8 C 93 % 1009,4 hPa 0,0 l/m 0,77 h 0,00 h 149 W/m 3,5 km/h (1 Bft) 97,95 %
25.11.2019 15:00 9,5 C 8,9 C 7,8 C 91 % 1009,2 hPa 0,0 l/m 0,00 h 0,00 h 36 W/m 1,9 km/h (1 Bft) 95,72 %
25.11.2019 16:00 8,8 C 7,2 C 6,2 C 92 % 1009,3 hPa 0,0 l/m 0,00 h 0,00 h 12 W/m 0,1 km/h (0 Bft) 98,02 %
25.11.2019 17:00 7,2 C 4,8 C 3,7 C 91 % 1009,2 hPa 0,0 l/m 0,00 h 0,00 h 0 W/m 0,0 km/h (0 Bft) 97,63 %
25.11.2019 18:00 6,5 C 5,6 C 4,5 C 94 % 1009,0 hPa 0,0 l/m 0,00 h 0,00 h 0 W/m 1,6 km/h (1 Bft) 96,32 %
25.11.2019 19:00 6,7 C 5,9 C 5,1 C 96 % 1009,0 hPa 0,0 l/m 0,00 h 0,00 h 0 W/m 3,0 km/h (1 Bft) 97,28 %
25.11.2019 20:00 6,3 C 5,5 C 4,7 C 97 % 1009,0 hPa 0,0 l/m 0,00 h 0,00 h 0 W/m 7,0 km/h (2 Bft) 98,22 %
25.11.2019 21:00 6,0 C 5,1 C 4,5 C 97 % 1009,0 hPa 0,0 l/m 0,00 h 0,00 h 0 W/m 9,5 km/h (2 Bft) 96,86 %
25.11.2019 22:00 5,9 C 5,1 C 4,5 C 98 % 1008,8 hPa 0,0 l/m 0,00 h 0,00 h 0 W/m 11,2 km/h (2 Bft) 96,56 %
25.11.2019 23:00 5,8 C 5,0 C 4,4 C 98 % 1008,4 hPa 0,0 l/m 0,00 h 0,00 h 0 W/m 11,2 km/h (2 Bft) 94,34 %
26.11.2019 00:00 5,8 C 5,0 C 4,4 C 98 % 1008,4 hPa 0,0 l/m 0,00 h 0,00 h 0 W/m 13,9 km/h (3 Bft) 98,61 %
26.11.2019 01:00 5,9 C 5,5 C 4,9 C 98 % 1007,9 hPa 0,0 l/m 0,00 h 0,00 h 0 W/m 15,5 km/h (3 Bft) 98,79 %
26.11.2019 02:00 6,2 C 5,6 C 5,0 C 98 % 1007,3 hPa 0,0 l/m 0,00 h 0,00 h 0 W/m 15,1 km/h (3 Bft) 94,80 %
26.11.2019 03:00 6,6 C 6,0 C 5,4 C 99 % 1006,8 hPa 0,0 l/m 0,00 h 0,00 h 0 W/m 12,8 km/h (3 Bft) 99,22 %
26.11.2019 04:00 6,8 C 6,1 C 5,6 C 99 % 1006,4 hPa 0,0 l/m 0,00 h 0,00 h 0 W/m 18,6 km/h (3 Bft) 97,37 %
26.11.2019 05:00 6,9 C 6,1 C 5,6 C 99 % 1006,1 hPa 0,0 l/m 0,00 h 0,00 h 0 W/m 20,8 km/h (4 Bft) 94,57 %
26.11.2019 06:00 7,1 C 6,7 C 6,1 C 99 % 1005,9 hPa 0,0 l/m 0,00 h 0,00 h 0 W/m 18,9 km/h (3 Bft) 99,15 %
26.11.2019 07:00 7,4 C 6,9 C 6,5 C 99 % 1005,6 hPa 0,0 l/m 0,00 h 0,00 h 0 W/m 18,3 km/h (3 Bft) 97,58 %
26.11.2019 08:00 7,7 C 7,3 C 6,8 C 98 % 1005,3 hPa 0,0 l/m 0,00 h 0,00 h 10 W/m 17,4 km/h (3 Bft) 96,01 %
26.11.2019 09:00 8,1 C 7,9 C 7,4 C 98 % 1005,1 hPa 0,0 l/m 0,00 h 0,00 h 32 W/m 19,5 km/h (3 Bft) 96,42 %
26.11.2019 10:00 8,7 C 8,5 C 8,0 C 98 % 1005,2 hPa 0,0 l/m 0,00 h 0,00 h 44 W/m 19,7 km/h (3 Bft) 98,86 %
26.11.2019 11:00 9,3 C 9,7 C 8,8 C 97 % 1005,0 hPa 0,0 l/m 0,03 h 0,00 h 101 W/m 20,4 km/h (4 Bft) 95,44 %
26.11.2019 12:00 10,3 C 11,2 C 10,1 C 95 % 1004,2 hPa 0,0 l/m 0,40 h 0,00 h 147 W/m 18,3 km/h (3 Bft) 97,43 %
26.11.2019 13:00 11,1 C 10,7 C 10,1 C 93 % 1003,6 hPa 0,0 l/m 0,00 h 0,00 h 49 W/m 16,6 km/h (3 Bft) 99,43 %
26.11.2019 14:00 11,1 C 10,7 C 10,1 C 93 % 1003,1 hPa 0,0 l/m 0,00 h 0,00 h 35 W/m 16,8 km/h (3 Bft) 94,66 %
26.11.2019 15:00 11,1 C 10,6 C 9,9 C 93 % 1002,7 hPa 0,0 l/m 0,00 h 0,00 h 23 W/m 12,7 km/h (3 Bft) 98,22 %
26.11.2019 16:00 10,9 C 10,3 C 9,5 C 93 % 1002,2 hPa 0,0 l/m 0,13 h 0,00 h 16 W/m 13,2 km/h (3 Bft) 98,79 %
26.11.2019 17:00 11,2 C 9,6 C 8,9 C 89 % 1002,0 hPa 0,2 l/m 0,00 h 0,30 h 0 W/m 12,1 km/h (2 Bft) 95,66 %
26.11.2019 18:00 10,8 C 9,1 C 8,3 C 91 % 1001,9 hPa 0,0 l/m 0,00 h 0,07 h 0 W/m 14,3 km/h (3 Bft) 98,36 %
26.11.2019 19:00 10,3 C 8,9 C 8,3 C 94 % 1001,6 hPa 0,2 l/m 0,00 h 0,00 h 0 W/m 17,5 km/h (3 Bft) 97,86 %
26.11.2019 20:00 9,9 C 9,3 C 8,4 C 96 % 1000,9 hPa 0,0 l/m 0,00 h 0,00 h 0 W/m 19,7 km/h (3 Bft) 96,91 %
26.11.2019 21:00 10,0 C 9,4 C 8,9 C 96 % 1000,2 hPa 0,0 l/m 0,00 h 0,00 h 0 W/m 16,1 km/h (3 Bft) 97,59 %
26.11.2019 22:00 10,3 C 9,8 C 8,9 C 95 % 999,3 hPa 0,0 l/m 0,00 h 0,00 h 0 W/m 20,8 km/h (4 Bft) 97,38 %
26.11.2019 23:00 10,4 C 9,8 C 8,9 C 94 % 998,5 hPa 0,0 l/m 0,00 h 0,00 h 0 W/m 16,6 km/h (3 Bft) 97,93 %
27.11.2019 00:00 10,1 C 9,2 C 8,3 C 94 % 998,0 hPa 0,0 l/m 0,00 h 0,00 h 0 W/m 16,7 km/h (3 Bft) 96,43 %
27.11.2019 01:00 9,8 C 9,2 C 8,5 C 95 % 997,0 hPa 0,0 l/m 0,00 h 0,00 h 0 W/m 17,6 km/h (3 Bft) 98,08 %
27.11.2019 02:00 9,9 C 9,4 C 8,9 C 95 % 995,1 hPa 0,0 l/m 0,00 h 0,00 h 0 W/m 18,2 km/h (3 Bft) 98,15 %
27.11.2019 03:00 9,9 C 8,9 C 8,4 C 95 % 994,1 hPa 1,4 l/m 0,00 h 0,37 h 0 W/m 17,5 km/h (3 Bft) 96,65 %
27.11.2019 04:00 9,9 C 8,3 C 7,8 C 96 % 993,0 hPa 0,8 l/m 0,00 h 0,73 h 0 W/m 21,9 km/h (4 Bft) 98,03 %
27.11.2019 05:00 9,7 C 8,3 C 7,8 C 97 % 991,8 hPa 0,0 l/m 0,00 h 0,13 h 0 W/m 23,3 km/h (4 Bft) 97,58 %
27.11.2019 06:00 9,6 C 8,3 C 7,8 C 97 % 990,8 hPa 0,2 l/m 0,00 h 0,47 h 0 W/m 22,1 km/h (4 Bft) 97,80 %
27.11.2019 07:00 9,6 C 8,3 C 7,8 C 96 % 990,7 hPa 0,0 l/m 0,00 h 0,17 h 0 W/m 26,2 km/h (4 Bft) 96,73 %
27.11.2019 08:00 9,9 C 8,9 C 8,2 C 95 % 991,3 hPa 0,0 l/m 0,00 h 0,00 h 9 W/m 18,3 km/h (3 Bft) 97,22 %
27.11.2019 09:00 10,5 C 10,2 C 9,0 C 93 % 991,5 hPa 0,0 l/m 0,00 h 0,00 h 33 W/m 17,3 km/h (3 Bft) 99,09 %
27.11.2019 10:00 11,0 C 10,8 C 9,9 C 92 % 991,6 hPa 0,0 l/m 0,03 h 0,07 h 67 W/m 21,0 km/h (4 Bft) 95,65 %
27.11.2019 11:00 11,2 C 9,7 C 9,2 C 92 % 991,5 hPa 0,6 l/m 0,03 h 0,40 h 70 W/m 20,2 km/h (4 Bft) 98,15 %
27.11.2019 12:00 12,1 C 12,1 C 10,2 C 86 % 990,8 hPa 0,0 l/m 0,47 h 0,00 h 179 W/m 28,2 km/h (4 Bft) 97,83 %
27.11.2019 13:00 12,8 C 12,9 C 10,8 C 79 % 990,2 hPa 0,0 l/m 0,17 h 0,00 h 130 W/m 29,3 km/h (5 Bft) 94,74 %
27.11.2019 14:00 12,5 C 12,0 C 11,1 C 79 % 989,8 hPa 0,0 l/m 0,00 h 0,00 h 46 W/m 28,4 km/h (4 Bft) 99,29 %
27.11.2019 15:00 12,1 C 11,4 C 10,6 C 82 % 989,6 hPa 0,0 l/m 0,00 h 0,00 h 21 W/m 23,7 km/h (4 Bft) 97,37 %
27.11.2019 16:00 11,5 C 9,0 C 8,7 C 87 % 989,4 hPa 0,6 l/m 0,00 h 0,87 h 7 W/m 21,0 km/h (4 Bft) 94,16 %
27.11.2019 17:00 10,4 C 8,3 C 7,8 C 93 % 989,1 hPa 0,2 l/m 0,00 h 0,73 h 0 W/m 19,2 km/h (3 Bft) 99,00 %
27.11.2019 18:00 10,2 C 8,8 C 8,3 C 94 % 988,8 hPa 0,0 l/m 0,00 h 0,00 h 0 W/m 19,3 km/h (3 Bft) 97,94 %
27.11.2019 19:00 10,4 C 9,6 C 8,5 C 93 % 988,5 hPa 0,0 l/m 0,00 h 0,00 h 0 W/m 23,2 km/h (4 Bft) 96,35 %
27.11.2019 20:00 10,9 C 9,7 C 8,7 C 92 % 988,3 hPa 0,6 l/m 0,00 h 0,27 h 0 W/m 26,1 km/h (4 Bft) 98,22 %
27.11.2019 21:00 10,8 C 9,4 C 8,6 C 92 % 988,3 hPa 0,0 l/m 0,00 h 0,20 h 0 W/m 31,3 km/h (5 Bft) 94,66 %
27.11.2019 22:00 11,0 C 9,7 C 9,1 C 91 % 988,2 hPa 0,0 l/m 0,00 h 0,27 h 0 W/m 33,8 km/h (5 Bft) 99,15 %
27.11.2019 23:00 11,3 C 10,1 C 9,3 C 88 % 988,3 hPa 0,2 l/m 0,00 h 0,83 h 0 W/m 45,2 km/h (6 Bft) 97,44 %
28.11.2019 00:00 11,3 C 10,2 C 9,5 C 87 % 988,6 hPa 0,0 l/m 0,00 h 0,83 h 0 W/m 43,2 km/h (6 Bft) 95,31 %
28.11.2019 01:00 11,0 C 9,5 C 9,1 C 89 % 988,8 hPa 0,2 l/m 0,00 h 0,60 h 0 W/m 36,1 km/h (5 Bft) 99,43 %
28.11.2019 02:00 10,6 C 9,0 C 8,6 C 91 % 989,2 hPa 0,0 l/m 0,00 h 0,83 h 0 W/m 29,9 km/h (5 Bft) 97,80 %
28.11.2019 03:00 10,4 C 9,3 C 8,7 C 91 % 989,5 hPa 0,0 l/m 0,00 h 0,30 h 0 W/m 36,9 km/h (5 Bft) 95,50 %
28.11.2019 04:00 10,3 C 9,5 C 8,9 C 91 % 989,5 hPa 0,0 l/m 0,00 h 0,27 h 0 W/m 32,7 km/h (5 Bft) 99,59 %
28.11.2019 05:00 10,3 C 9,5 C 8,9 C 90 % 989,6 hPa 0,0 l/m 0,00 h 0,00 h 0 W/m 35,6 km/h (5 Bft) 97,22 %
28.11.2019 06:00 10,1 C 9,4 C 8,8 C 91 % 989,6 hPa 0,0 l/m 0,00 h 0,03 h 0 W/m 35,0 km/h (5 Bft) 96,30 %
28.11.2019 07:00 10,2 C 9,4 C 8,9 C 90 % 990,0 hPa 0,0 l/m 0,00 h 0,10 h 0 W/m 36,1 km/h (5 Bft) 99,64 %
28.11.2019 08:00 10,1 C 8,9 C 8,4 C 91 % 990,4 hPa 0,0 l/m 0,00 h 0,80 h 11 W/m 32,4 km/h (5 Bft) 96,08 %
28.11.2019 09:00 10,2 C 9,7 C 9,1 C 91 % 990,8 hPa 0,0 l/m 0,13 h 0,43 h 52 W/m 33,9 km/h (5 Bft) 98,00 %
28.11.2019 10:00 10,5 C 10,1 C 9,5 C 89 % 991,4 hPa 0,0 l/m 0,20 h 0,00 h 82 W/m 34,1 km/h (5 Bft) 97,54 %
28.11.2019 11:00 10,5 C 9,3 C 8,9 C 90 % 991,8 hPa 0,2 l/m 0,00 h 0,57 h 41 W/m 26,3 km/h (4 Bft) 96,59 %
28.11.2019 12:00 10,1 C 8,4 C 8,2 C 93 % 991,8 hPa 0,6 l/m 0,00 h 1,00 h 52 W/m 25,0 km/h (4 Bft) 99,29 %
28.11.2019 13:00 9,9 C 8,3 C 8,1 C 95 % 992,1 hPa 0,4 l/m 0,00 h 1,00 h 43 W/m 22,7 km/h (4 Bft) 95,87 %
28.11.2019 14:00 9,7 C 8,2 C 7,8 C 95 % 992,5 hPa 0,8 l/m 0,00 h 1,00 h 26 W/m 20,2 km/h (4 Bft) 97,58 %
28.11.2019 15:00 9,6 C 8,3 C 7,8 C 96 % 992,9 hPa 0,0 l/m 0,00 h 1,00 h 14 W/m 22,3 km/h (4 Bft) 99,65 %
28.11.2019 16:00 9,6 C 8,3 C 7,8 C 97 % 993,8 hPa 0,0 l/m 0,00 h 0,77 h 4 W/m 20,3 km/h (4 Bft) 94,74 %
28.11.2019 17:00 9,4 C 8,0 C 7,8 C 97 % 994,7 hPa 0,0 l/m 0,00 h 0,63 h 0 W/m 14,4 km/h (3 Bft) 97,29 %
28.11.2019 18:00 9,2 C 8,2 C 7,8 C 98 % 995,4 hPa 0,2 l/m 0,00 h 0,83 h 0 W/m 15,4 km/h (3 Bft) 98,86 %
28.11.2019 19:00 9,3 C 8,1 C 7,8 C 98 % 996,0 hPa 0,0 l/m 0,00 h 0,38 h 0 W/m 14,4 km/h (3 Bft) 97,02 %
28.11.2019 20:00 9,2 C 7,9 C 7,8 C 98 % 996,8 hPa 0,2 l/m 0,00 h 0,90 h 0 W/m 14,4 km/h (3 Bft) 96,66 %
28.11.2019 21:00 9,1 C 7,8 C 7,7 C 98 % 997,6 hPa 0,8 l/m 0,00 h 1,00 h 0 W/m 10,0 km/h (2 Bft) 98,01 %
28.11.2019 22:00 8,9 C 7,8 C 7,2 C 99 % 998,5 hPa 0,8 l/m 0,00 h 1,00 h 0 W/m 10,1 km/h (2 Bft) 97,72 %
28.11.2019 23:00 8,5 C 7,2 C 7,1 C 99 % 999,5 hPa 0,2 l/m 0,00 h 0,80 h 0 W/m 4,3 km/h (1 Bft) 97,01 %
29.11.2019 00:00 8,2 C 7,1 C 6,7 C 99 % 1000,5 hPa 0,4 l/m 0,00 h 0,67 h 0 W/m 6,2 km/h (2 Bft) 97,57 %
29.11.2019 01:00 7,5 C 6,2 C 6,1 C 99 % 1001,5 hPa 0,2 l/m 0,00 h 0,43 h 0 W/m 10,3 km/h (2 Bft) 97,72 %
29.11.2019 02:00 6,6 C 5,6 C 5,3 C 99 % 1002,4 hPa 0,0 l/m 0,00 h 0,20 h 0 W/m 1,1 km/h (0 Bft) 97,58 %
29.11.2019 03:00 6,5 C 5,6 C 5,5 C 99 % 1003,2 hPa 0,0 l/m 0,00 h 0,00 h 0 W/m 3,0 km/h (1 Bft) 96,92 %
29.11.2019 04:00 6,2 C 4,9 C 4,7 C 99 % 1004,0 hPa 0,0 l/m 0,00 h 0,00 h 0 W/m 4,4 km/h (1 Bft) 97,99 %
29.11.2019 05:00 5,3 C 3,6 C 3,2 C 98 % 1005,0 hPa 0,0 l/m 0,00 h 0,00 h 0 W/m 0,0 km/h (0 Bft) 97,78 %
29.11.2019 06:00 4,4 C 3,2 C 2,8 C 97 % 1006,0 hPa 0,0 l/m 0,00 h 0,00 h 0 W/m 1,1 km/h (0 Bft) 96,32 %
29.11.2019 07:00 3,7 C 2,3 C 1,9 C 97 % 1007,0 hPa 0,0 l/m 0,00 h 0,00 h 0 W/m 0,6 km/h (0 Bft) 96,28 %
29.11.2019 08:00 3,6 C 3,1 C 2,6 C 97 % 1008,2 hPa 0,0 l/m 0,00 h 0,00 h 10 W/m 1,0 km/h (0 Bft) 96,30 %
29.11.2019 09:00 4,4 C 4,2 C 3,4 C 97 % 1009,3 hPa 0,0 l/m 0,07 h 0,00 h 43 W/m 3,1 km/h (1 Bft) 99,49 %
29.11.2019 10:00 5,3 C 8,7 C 3,9 C 97 % 1010,3 hPa 0,0 l/m 1,00 h 0,00 h 178 W/m 6,6 km/h (2 Bft) 97,29 %
29.11.2019 11:00 7,3 C 11,9 C 5,3 C 91 % 1011,3 hPa 0,0 l/m 1,00 h 0,00 h 274 W/m 9,2 km/h (2 Bft) 99,00 %
29.11.2019 12:00 8,8 C 13,7 C 7,1 C 83 % 1011,9 hPa 0,0 l/m 1,00 h 0,00 h 304 W/m 11,2 km/h (2 Bft) 97,27 %
29.11.2019 13:00 9,3 C 12,8 C 7,5 C 77 % 1012,5 hPa 0,0 l/m 1,00 h 0,00 h 278 W/m 13,0 km/h (3 Bft) 96,64 %
29.11.2019 14:00 8,7 C 8,7 C 7,4 C 79 % 1013,2 hPa 0,0 l/m 0,57 h 0,00 h 119 W/m 11,1 km/h (2 Bft) 94,56 %
29.11.2019 15:00 7,9 C 7,3 C 6,5 C 82 % 1014,1 hPa 0,0 l/m 0,03 h 0,00 h 48 W/m 7,1 km/h (2 Bft) 99,21 %
29.11.2019 16:00 7,1 C 5,7 C 5,1 C 83 % 1014,9 hPa 0,0 l/m 0,00 h 0,20 h 11 W/m 5,5 km/h (1 Bft) 97,30 %
29.11.2019 17:00 6,0 C 4,4 C 4,1 C 86 % 1015,8 hPa 0,0 l/m 0,00 h 0,00 h 0 W/m 0,5 km/h (0 Bft) 94,41 %
29.11.2019 18:00 5,3 C 4,1 C 3,4 C 89 % 1016,7 hPa 0,0 l/m 0,00 h 0,00 h 0 W/m 0,4 km/h (0 Bft) 99,32 %
29.11.2019 19:00 5,1 C 4,3 C 3,9 C 91 % 1017,5 hPa 0,0 l/m 0,00 h 0,00 h 0 W/m 2,1 km/h (1 Bft) 95,98 %
29.11.2019 20:00 4,5 C 2,9 C 2,6 C 90 % 1018,5 hPa 0,0 l/m 0,00 h 0,00 h 0 W/m 1,2 km/h (1 Bft) 95,83 %
29.11.2019 21:00 3,5 C 2,2 C 1,8 C 91 % 1019,2 hPa 0,0 l/m 0,00 h 0,00 h 0 W/m 1,9 km/h (1 Bft) 97,22 %
29.11.2019 22:00 2,8 C 1,4 C 1,0 C 92 % 1019,8 hPa 0,0 l/m 0,00 h 0,00 h 0 W/m 1,0 km/h (0 Bft) 99,71 %
29.11.2019 23:00 2,2 C 1,1 C 0,6 C 93 % 1020,5 hPa 0,0 l/m 0,00 h 0,00 h 0 W/m 0,7 km/h (0 Bft) 96,52 %
30.11.2019 00:00 1,8 C 0,8 C 0,2 C 94 % 1021,1 hPa 0,0 l/m 0,00 h 0,00 h 0 W/m 0,4 km/h (0 Bft) 96,51 %
30.11.2019 01:00 1,5 C 0,2 C -0,5 C 95 % 1021,3 hPa 0,0 l/m 0,00 h 0,00 h 0 W/m 0,2 km/h (0 Bft) 95,29 %
30.11.2019 02:00 0,9 C -0,1 C -1,1 C 95 % 1021,9 hPa 0,0 l/m 0,00 h 0,00 h 0 W/m 0,1 km/h (0 Bft) 97,70 %
30.11.2019 03:00 0,6 C -0,6 C -1,5 C 95 % 1022,6 hPa 0,0 l/m 0,00 h 0,00 h 0 W/m 0,0 km/h (0 Bft) 96,06 %
30.11.2019 04:00 0,4 C -0,6 C -1,4 C 96 % 1023,0 hPa 0,0 l/m 0,00 h 0,00 h 0 W/m 0,2 km/h (0 Bft) 98,14 %
30.11.2019 05:00 0,2 C -1,0 C -1,9 C 96 % 1023,2 hPa 0,0 l/m 0,00 h 0,00 h 0 W/m 0,0 km/h (0 Bft) 95,25 %
30.11.2019 06:00 -0,2 C -1,6 C -2,3 C 96 % 1023,4 hPa 0,0 l/m 0,00 h 0,00 h 0 W/m 0,0 km/h (0 Bft) 99,61 %
30.11.2019 07:00 -0,6 C -1,8 C -2,6 C 96 % 1023,6 hPa 0,0 l/m 0,00 h 0,00 h 0 W/m 0,0 km/h (0 Bft) 97,41 %
30.11.2019 08:00 -0,9 C -1,9 C -2,4 C 96 % 1023,9 hPa 0,0 l/m 0,00 h 0,00 h 14 W/m 0,5 km/h (0 Bft) 96,72 %
30.11.2019 09:00 -0,0 C -0,0 C -1,0 C 97 % 1024,3 hPa 0,0 l/m 0,37 h 0,00 h 64 W/m 2,5 km/h (1 Bft) 95,22 %
30.11.2019 10:00 1,6 C 4,3 C 0,2 C 98 % 1024,8 hPa 0,2 l/m 0,93 h 0,00 h 150 W/m 5,7 km/h (1 Bft) 98,01 %
30.11.2019 11:00 3,4 C 7,6 C 2,0 C 99 % 1025,1 hPa 0,0 l/m 1,00 h 0,00 h 240 W/m 4,8 km/h (1 Bft) 98,79 %
30.11.2019 12:00 5,1 C 10,1 C 4,2 C 98 % 1024,8 hPa 0,0 l/m 1,00 h 0,00 h 281 W/m 5,5 km/h (1 Bft) 97,79 %
30.11.2019 13:00 6,5 C 10,3 C 4,8 C 91 % 1024,7 hPa 0,0 l/m 1,00 h 0,00 h 267 W/m 7,1 km/h (2 Bft) 99,15 %
30.11.2019 14:00 6,8 C 8,2 C 4,4 C 87 % 1024,4 hPa 0,0 l/m 0,73 h 0,00 h 163 W/m 3,4 km/h (1 Bft) 96,43 %
30.11.2019 15:00 5,9 C 5,1 C 3,9 C 89 % 1024,1 hPa 0,0 l/m 0,00 h 0,00 h 48 W/m 3,7 km/h (1 Bft) 98,58 %
30.11.2019 16:00 4,5 C 3,0 C 2,2 C 92 % 1024,1 hPa 0,0 l/m 0,07 h 0,00 h 12 W/m 1,4 km/h (1 Bft) 97,22 %
30.11.2019 17:00 3,2 C 1,3 C 0,5 C 93 % 1024,1 hPa 0,0 l/m 0,00 h 0,00 h 0 W/m 0,7 km/h (0 Bft) 95,66 %
30.11.2019 18:00 1,8 C -0,4 C -1,0 C 93 % 1023,9 hPa 0,0 l/m 0,00 h 0,00 h 0 W/m 0,1 km/h (0 Bft) 97,29 %
30.11.2019 19:00 0,7 C -0,5 C -1,5 C 94 % 1024,1 hPa 0,0 l/m 0,00 h 0,00 h 0 W/m 0,4 km/h (0 Bft) 98,44 %
30.11.2019 20:00 0,4 C -0,9 C -1,1 C 95 % 1024,2 hPa 0,0 l/m 0,00 h 0,00 h 0 W/m 0,0 km/h (0 Bft) 97,00 %
30.11.2019 21:00 0,1 C -1,1 C -1,3 C 96 % 1024,2 hPa 0,0 l/m 0,00 h 0,00 h 0 W/m 0,0 km/h (0 Bft) 98,01 %
30.11.2019 22:00 -0,5 C -1,9 C -2,0 C 96 % 1023,9 hPa 0,0 l/m 0,00 h 0,00 h 0 W/m 0,0 km/h (0 Bft) 96,51 %
30.11.2019 23:00 -1,3 C -2,3 C -2,2 C 97 % 1023,1 hPa 0,0 l/m 0,00 h 0,00 h 0 W/m 0,2 km/h (0 Bft) 95,46 %
01.12.2019 00:00 -1,4 C -2,4 C -2,8 C 97 % 1022,7 hPa 0,0 l/m 0,00 h 0,00 h 0 W/m 0,0 km/h (0 Bft) 93,69 %
01.12.2019 01:00 -1,4 C -2,3 C -2,8 C 97 % 1022,4 hPa 0,0 l/m 0,00 h 0,00 h 0 W/m 0,0 km/h (0 Bft) 95,29 %
01.12.2019 02:00 -1,3 C -2,0 C -2,5 C 97 % 1022,1 hPa 0,0 l/m 0,00 h 0,00 h 0 W/m 0,1 km/h (0 Bft) 97,88 %
01.12.2019 03:00 -1,0 C -1,7 C -2,2 C 98 % 1021,9 hPa 0,0 l/m 0,00 h 0,00 h 0 W/m 0,1 km/h (0 Bft) 97,57 %
01.12.2019 04:00 -0,6 C -1,5 C -1,7 C 98 % 1021,4 hPa 0,0 l/m 0,00 h 0,00 h 0 W/m 1,0 km/h (0 Bft) 97,61 %
01.12.2019 05:00 -0,4 C -1,7 C -1,7 C 98 % 1020,9 hPa 0,0 l/m 0,00 h 0,00 h 0 W/m 1,8 km/h (1 Bft) 96,52 %
01.12.2019 06:00 -0,6 C -1,7 C -2,2 C 98 % 1020,6 hPa 0,0 l/m 0,00 h 0,00 h 0 W/m 2,3 km/h (1 Bft) 95,92 %
01.12.2019 07:00 -0,7 C -1,5 C -1,9 C 98 % 1020,2 hPa 0,0 l/m 0,00 h 0,00 h 0 W/m 1,1 km/h (0 Bft) 98,93 %
01.12.2019 08:00 -0,4 C -1,6 C -1,7 C 98 % 1020,6 hPa 0,0 l/m 0,00 h 0,00 h 10 W/m 0,5 km/h (0 Bft) 95,37 %
01.12.2019 09:00 -0,3 C -0,9 C -1,4 C 98 % 1021,3 hPa 0,0 l/m 0,00 h 0,00 h 44 W/m 2,6 km/h (1 Bft) 97,63 %
01.12.2019 10:00 0,2 C -0,0 C -0,5 C 98 % 1021,1 hPa 0,0 l/m 0,00 h 0,00 h 50 W/m 4,7 km/h (1 Bft) 95,92 %
01.12.2019 11:00 0,7 C 1,1 C 0,6 C 98 % 1021,2 hPa 0,2 l/m 0,00 h 0,00 h 70 W/m 3,3 km/h (1 Bft) 94,70 %
01.12.2019 12:00 1,8 C 3,4 C 2,2 C 98 % 1021,1 hPa 0,0 l/m 0,20 h 0,00 h 141 W/m 3,1 km/h (1 Bft) 98,75 %
01.12.2019 13:00 3,1 C 4,3 C 3,1 C 95 % 1020,8 hPa 0,0 l/m 0,30 h 0,00 h 134 W/m 5,1 km/h (1 Bft) 96,60 %
01.12.2019 14:00 3,1 C 2,9 C 2,2 C 91 % 1020,4 hPa 0,0 l/m 0,00 h 0,00 h 53 W/m 4,7 km/h (1 Bft) 96,72 %
01.12.2019 15:00 2,8 C 2,2 C 1,7 C 89 % 1020,3 hPa 0,0 l/m 0,00 h 0,00 h 28 W/m 4,1 km/h (1 Bft) 99,22 %
01.12.2019 16:00 2,4 C 1,5 C 1,0 C 90 % 1020,3 hPa 0,0 l/m 0,00 h 0,00 h 9 W/m 3,3 km/h (1 Bft) 96,44 %
01.12.2019 17:00 1,9 C 1,0 C 0,6 C 91 % 1020,7 hPa 0,0 l/m 0,00 h 0,00 h 0 W/m 3,9 km/h (1 Bft) 97,94 %
01.12.2019 18:00 1,6 C 1,0 C 0,6 C 93 % 1021,3 hPa 0,0 l/m 0,00 h 0,00 h 0 W/m 2,2 km/h (1 Bft) 96,61 %
01.12.2019 19:00 1,6 C 0,7 C 0,2 C 93 % 1021,9 hPa 0,0 l/m 0,00 h 0,00 h 0 W/m 1,5 km/h (1 Bft) 97,08 %
01.12.2019 20:00 1,3 C 0,3 C -0,2 C 93 % 1022,1 hPa 0,0 l/m 0,00 h 0,00 h 0 W/m 1,4 km/h (1 Bft) 99,29 %
01.12.2019 21:00 0,8 C -0,3 C -1,0 C 94 % 1022,7 hPa 0,0 l/m 0,00 h 0,00 h 0 W/m 1,9 km/h (1 Bft) 94,37 %
01.12.2019 22:00 0,4 C -0,5 C -1,0 C 94 % 1023,1 hPa 0,0 l/m 0,00 h 0,00 h 0 W/m 1,8 km/h (1 Bft) 97,36 %
01.12.2019 23:00 0,4 C 0,0 C -0,6 C 95 % 1023,5 hPa 0,0 l/m 0,00 h 0,00 h 0 W/m 0,1 km/h (0 Bft) 97,93 %
Min-Datum _ 01.12.19 30.11.19 30.11.19 29.11.19 27.11.19 - - - - 25.11.19 01.12.19
_ Min-Zeit 00:56 07:46 06:46 13:24 22:50 - - - - 00:00 00:02
Minimum _ -1,5 C -2,8 C -2,8 C 76 % 988,0 hPa - - - - 0,0 km/h (0 Bft) 13,33 %
Max-Datum _ 27.11.19 27.11.19 27.11.19 25.11.19 30.11.19 27.11.19 25.11.19 27.11.19 27.11.19 27.11.19 25.11.19
_ Max-Zeit 13:26 13:22 13:52 05:44 11:38 03:50 13:36 04:05 13:22 23:50 00:40
Maximum _ 12,9 C 16,7 C 11,7 C 99 % 1025,2 hPa 1,4 l/m 0,03 h 0,08 h 407 W/m 70,8 km/h
S (8 Bft)
100,00 %
Durchschnitt _ 6,3 C 5,6 C 4,8 C 94 % 1007,6 hPa #10,4 l/m #13:02 h #22:35 h 78 W/m 11,0 km/h (2 Bft) 97,21 %
© 2019 W. Hausmann